Time;durP1;ratioP1;P1;durP2;ratioP2;P2;SDS_P1;SDS_P2;PMS_P1;PMS_P2;Temp;Humidity;BMP_temperature;BMP_pressure;BME280_temperature;BME280_humidity;BME280_pressure;Samples;Min_cycle;Max_cycle;Signal;HPM_P1;HPM_P2
2023/10/07 00:01:54;;;;;;;21.90;13.33;;;7.20;99.90;;;;;;5075391;28;20599;-69
2023/10/07 00:04:22;;;;;;;20.27;13.00;;;7.20;99.90;;;;;;5074947;28;20228;-69
2023/10/07 00:06:49;;;;;;;23.97;13.40;;;7.10;99.90;;;;;;5075447;28;20254;-69
2023/10/07 00:09:22;;;;;;;22.27;12.93;;;7.00;99.90;;;;;;5075335;28;20224;-68
2023/10/07 00:11:49;;;;;;;18.17;12.27;;;7.20;99.90;;;;;;5075265;28;20220;-69
2023/10/07 00:14:16;;;;;;;22.73;12.97;;;7.20;99.90;;;;;;5075455;28;20247;-69
2023/10/07 00:16:46;;;;;;;19.43;12.60;;;7.10;99.90;;;;;;5075537;28;20268;-69
2023/10/07 00:19:13;;;;;;;22.53;13.53;;;7.10;99.90;;;;;;5078104;28;20200;-69
2023/10/07 00:21:59;;;;;;;16.97;12.37;;;7.10;99.90;;;;;;5080806;28;20209;-69
2023/10/07 00:24:32;;;;;;;19.73;11.83;;;7.00;99.90;;;;;;5079436;28;20228;-68
2023/10/07 00:26:59;;;;;;;19.50;12.60;;;6.90;99.90;;;;;;5075159;28;20204;-68
2023/10/07 00:29:26;;;;;;;21.67;13.13;;;6.90;99.90;;;;;;5075063;28;20205;-69
2023/10/07 00:31:53;;;;;;;20.70;12.90;;;6.90;99.90;;;;;;5074819;28;20710;-68
2023/10/07 00:34:26;;;;;;;25.67;13.33;;;6.90;99.90;;;;;;5074973;28;20276;-68
2023/10/07 00:36:58;;;;;;;20.70;13.17;;;7.10;99.90;;;;;;5075097;28;20298;-69
2023/10/07 00:39:31;;;;;;;23.70;14.27;;;7.30;99.90;;;;;;5075025;28;20193;-69
2023/10/07 00:41:58;;;;;;;20.43;13.60;;;7.10;99.90;;;;;;5074729;28;20241;-69
2023/10/07 00:44:31;;;;;;;20.30;12.70;;;7.10;99.90;;;;;;5074691;28;20221;-69
2023/10/07 00:47:12;;;;;;;19.73;13.63;;;7.20;99.90;;;;;;5074637;28;20204;-68
2023/10/07 00:49:42;;;;;;;20.57;12.93;;;7.10;99.90;;;;;;5074602;28;20224;-69
2023/10/07 00:52:13;;;;;;;20.40;13.07;;;7.00;99.90;;;;;;5074900;28;20197;-69
2023/10/07 00:54:50;;;;;;;21.43;13.03;;;7.00;99.90;;;;;;5074585;28;20199;-69
2023/10/07 00:57:24;;;;;;;21.77;13.07;;;7.00;99.90;;;;;;5074476;28;20213;-69
2023/10/07 00:59:52;;;;;;;22.20;13.07;;;6.90;99.90;;;;;;5074381;28;20211;-69
2023/10/07 01:02:29;;;;;;;20.50;13.13;;;6.80;99.90;;;;;;5074198;28;20758;-68
2023/10/07 01:05:00;;;;;;;23.63;13.63;;;6.80;99.90;;;;;;5074061;28;20691;-69
2023/10/07 01:07:28;;;;;;;27.53;14.90;;;6.90;99.90;;;;;;5074216;28;20732;-69
2023/10/07 01:10:04;;;;;;;20.97;13.93;;;6.90;99.90;;;;;;5074159;28;20284;-69
2023/10/07 01:12:36;;;;;;;24.03;14.83;;;6.90;99.90;;;;;;5074437;28;20221;-69
2023/10/07 01:15:13;;;;;;;22.30;14.60;;;6.90;99.90;;;;;;5074527;28;20205;-68
2023/10/07 01:17:42;;;;;;;27.50;15.50;;;6.80;99.90;;;;;;5073181;28;20529;-69
2023/10/07 01:20:10;;;;;;;24.23;15.83;;;6.80;99.90;;;;;;5074179;28;20203;-69
2023/10/07 01:22:43;;;;;;;26.63;16.50;;;6.90;99.90;;;;;;5074050;28;20226;-69
2023/10/07 01:25:17;;;;;;;23.90;15.60;;;6.80;99.90;;;;;;5074198;28;20227;-69
2023/10/07 01:27:50;;;;;;;24.13;15.50;;;6.70;99.90;;;;;;5073910;28;20201;-69
2023/10/07 01:30:16;;;;;;;23.40;14.53;;;6.80;99.90;;;;;;5073885;28;20242;-69
2023/10/07 01:32:54;;;;;;;22.37;14.50;;;6.70;99.90;;;;;;5073716;28;20243;-69
2023/10/07 01:35:26;;;;;;;24.23;14.80;;;6.80;99.90;;;;;;5073899;28;20204;-69
2023/10/07 01:38:06;;;;;;;24.83;15.10;;;6.70;99.90;;;;;;5073910;28;20295;-69
2023/10/07 01:40:41;;;;;;;24.73;15.23;;;6.80;99.90;;;;;;5073526;28;20201;-69
2023/10/07 01:43:08;;;;;;;21.67;13.40;;;6.80;99.90;;;;;;5073532;28;20198;-69
2023/10/07 01:45:39;;;;;;;24.87;15.30;;;6.70;99.90;;;;;;5073295;28;20319;-69
2023/10/07 01:48:08;;;;;;;22.60;14.17;;;6.80;99.90;;;;;;5073557;28;20199;-69
2023/10/07 01:50:38;;;;;;;24.17;14.70;;;6.70;99.90;;;;;;5073350;28;20201;-69
2023/10/07 01:53:06;;;;;;;25.93;15.10;;;6.70;99.90;;;;;;5073414;28;20197;-69
2023/10/07 01:55:36;;;;;;;25.83;14.87;;;6.60;99.90;;;;;;5073206;28;20197;-69
2023/10/07 01:58:03;;;;;;;22.77;13.67;;;6.70;99.90;;;;;;5073120;28;20210;-69
2023/10/07 02:00:44;;;;;;;25.27;15.10;;;6.80;99.90;;;;;;5073438;28;20203;-69
2023/10/07 02:03:14;;;;;;;22.77;14.30;;;6.90;99.90;;;;;;5073308;28;20208;-68
2023/10/07 02:05:41;;;;;;;27.33;15.30;;;7.00;99.90;;;;;;5073062;28;20813;-68
2023/10/07 02:08:14;;;;;;;24.50;15.73;;;6.90;99.90;;;;;;5073075;28;20240;-68
2023/10/07 02:10:42;;;;;;;26.53;14.60;;;6.90;99.90;;;;;;5073042;28;20204;-69
2023/10/07 02:13:13;;;;;;;24.83;13.70;;;7.10;99.90;;;;;;5073153;28;20228;-70
2023/10/07 02:15:42;;;;;;;25.20;13.53;;;7.20;99.90;;;;;;5073120;28;20201;-69
2023/10/07 02:18:13;;;;;;;22.80;14.23;;;7.10;99.90;;;;;;5073027;28;20249;-69
2023/10/07 02:20:39;;;;;;;24.30;14.40;;;7.00;99.90;;;;;;5073052;28;20197;-68
2023/10/07 02:23:12;;;;;;;23.77;14.23;;;7.00;99.90;;;;;;5072847;28;20203;-68
2023/10/07 02:25:41;;;;;;;21.93;14.27;;;7.00;99.90;;;;;;5072701;28;20798;-69
2023/10/07 02:28:09;;;;;;;20.00;13.70;;;6.90;99.90;;;;;;5072565;28;20697;-69
2023/10/07 02:30:51;;;;;;;23.93;14.53;;;6.80;99.90;;;;;;5072895;28;20200;-68
2023/10/07 02:33:21;;;;;;;24.13;13.60;;;6.80;99.90;;;;;;5072809;28;20205;-68
2023/10/07 02:35:54;;;;;;;22.67;13.70;;;6.80;99.90;;;;;;5072790;28;20240;-69
2023/10/07 02:38:25;;;;;;;18.57;13.00;;;6.80;99.90;;;;;;5072963;28;20201;-69
2023/10/07 02:40:58;;;;;;;23.93;13.63;;;6.80;99.90;;;;;;5072715;28;20229;-69
2023/10/07 02:43:27;;;;;;;23.80;14.10;;;6.70;99.90;;;;;;5072810;28;20200;-69
2023/10/07 02:45:59;;;;;;;22.97;14.03;;;6.70;99.90;;;;;;5073942;28;20229;-69
2023/10/07 02:48:27;;;;;;;20.23;13.43;;;6.70;99.90;;;;;;5078174;28;20228;-69
2023/10/07 02:50:54;;;;;;;21.67;13.80;;;6.60;99.90;;;;;;5072832;28;20229;-69
2023/10/07 02:53:21;;;;;;;23.53;14.97;;;6.60;99.90;;;;;;5072607;28;20197;-69
2023/10/07 02:55:54;;;;;;;23.83;15.50;;;6.50;99.90;;;;;;5072755;28;20660;-69
2023/10/07 02:58:32;;;;;;;22.27;14.33;;;6.50;99.90;;;;;;5072557;28;20193;-69
2023/10/07 03:01:10;;;;;;;25.67;15.00;;;6.50;99.90;;;;;;5072742;28;20202;-69
2023/10/07 03:03:38;;;;;;;23.97;14.23;;;6.50;99.90;;;;;;5072607;28;20201;-69
2023/10/07 03:06:07;;;;;;;25.23;14.47;;;6.50;99.90;;;;;;5072318;28;20575;-69
2023/10/07 03:08:47;;;;;;;24.20;15.03;;;6.50;99.90;;;;;;5072750;28;20291;-69
2023/10/07 03:11:20;;;;;;;20.73;14.37;;;6.50;99.90;;;;;;5072666;28;20201;-68
2023/10/07 03:13:50;;;;;;;21.97;14.93;;;6.40;99.90;;;;;;5072638;28;20603;-68
2023/10/07 03:16:28;;;;;;;26.13;14.43;;;6.30;99.90;;;;;;5072498;28;20236;-68
2023/10/07 03:19:07;;;;;;;25.43;14.60;;;6.20;99.90;;;;;;5072337;28;20199;-68
2023/10/07 03:21:55;;;;;;;25.10;15.17;;;6.20;99.90;;;;;;5072239;28;20228;-68
2023/10/07 03:24:40;;;;;;;24.23;14.33;;;6.30;99.90;;;;;;5072436;28;20567;-68
2023/10/07 03:27:10;;;;;;;21.10;14.40;;;6.20;99.90;;;;;;5072299;28;20727;-68
2023/10/07 03:29:39;;;;;;;26.37;14.63;;;6.20;99.90;;;;;;5072515;28;20208;-68
2023/10/07 03:32:12;;;;;;;25.97;14.80;;;6.20;99.90;;;;;;5072409;28;20291;-68
2023/10/07 03:34:40;;;;;;;25.50;13.87;;;6.10;99.90;;;;;;5072404;28;20287;-68
2023/10/07 03:37:15;;;;;;;22.77;15.33;;;6.20;99.90;;;;;;5072214;28;20259;-69
2023/10/07 03:39:56;;;;;;;19.60;13.77;;;6.30;99.90;;;;;;5073162;28;20197;-68
2023/10/07 03:42:24;;;;;;;26.20;14.73;;;6.60;99.90;;;;;;5075755;28;20303;-69
2023/10/07 03:44:52;;;;;;;25.47;13.67;;;6.80;99.90;;;;;;5075777;28;20268;-69
2023/10/07 03:47:18;;;;;;;24.93;14.20;;;6.90;99.90;;;;;;5075639;28;20633;-69
2023/10/07 03:49:52;;;;;;;24.33;14.13;;;6.80;99.90;;;;;;5075712;28;20252;-69
2023/10/07 03:52:21;;;;;;;20.37;13.57;;;6.80;99.90;;;;;;5075577;28;20279;-69
2023/10/07 03:54:48;;;;;;;24.23;12.83;;;6.70;99.90;;;;;;5075531;28;20196;-69
2023/10/07 03:57:16;;;;;;;21.60;12.97;;;6.80;99.90;;;;;;5075483;28;20209;-69
2023/10/07 03:59:45;;;;;;;21.83;13.30;;;6.70;99.90;;;;;;5075424;28;20608;-69
2023/10/07 04:02:29;;;;;;;24.47;13.60;;;6.70;99.90;;;;;;5075475;28;20199;-69
2023/10/07 04:05:00;;;;;;;24.03;12.77;;;6.80;99.90;;;;;;5075403;28;20223;-69
2023/10/07 04:07:27;;;;;;;24.23;12.67;;;7.10;99.90;;;;;;5075582;28;20197;-69
2023/10/07 04:09:54;;;;;;;20.80;11.90;;;7.20;99.90;;;;;;5075510;28;20247;-69
2023/10/07 04:12:22;;;;;;;20.80;12.20;;;7.20;99.90;;;;;;5075283;28;20634;-69
2023/10/07 04:14:55;;;;;;;22.83;12.80;;;7.20;99.90;;;;;;5075508;28;20250;-69
2023/10/07 04:17:23;;;;;;;19.20;11.60;;;7.20;99.90;;;;;;5075566;28;20195;-69
2023/10/07 04:19:53;;;;;;;21.93;12.33;;;7.20;99.90;;;;;;5075671;28;20652;-69
2023/10/07 04:22:24;;;;;;;21.17;12.40;;;7.40;99.90;;;;;;5075362;28;20257;-69
2023/10/07 04:24:51;;;;;;;20.93;12.13;;;7.30;99.90;;;;;;5075569;28;20293;-69
2023/10/07 04:27:20;;;;;;;23.47;12.77;;;7.30;99.90;;;;;;5075254;28;20200;-68
2023/10/07 04:29:51;;;;;;;20.40;11.87;;;7.30;99.90;;;;;;5075217;28;20370;-69
2023/10/07 04:32:21;;;;;;;24.33;13.63;;;7.20;99.90;;;;;;5075061;28;20200;-68
2023/10/07 04:35:06;;;;;;;25.10;12.27;;;7.20;99.90;;;;;;5074981;28;20193;-68
2023/10/07 04:37:47;;;;;;;22.30;13.03;;;7.20;99.90;;;;;;5075211;28;20203;-69
2023/10/07 04:43:25;;;;;;;25.20;13.67;;;7.30;99.90;;;;;;5074951;28;20200;-68
2023/10/07 04:45:50;;;;;;;19.13;12.77;;;7.30;99.90;;;;;;5074797;28;20223;-70
2023/10/07 04:48:24;;;;;;;27.00;13.20;;;7.40;99.90;;;;;;5075129;28;20225;-69
2023/10/07 04:51:02;;;;;;;20.40;12.43;;;7.30;99.90;;;;;;5074431;28;20235;-68
2023/10/07 04:53:37;;;;;;;25.33;13.37;;;7.30;99.90;;;;;;5074666;28;20232;-68
2023/10/07 04:56:05;;;;;;;23.57;13.53;;;7.30;99.90;;;;;;5075463;28;20200;-68
2023/10/07 04:58:32;;;;;;;21.33;12.60;;;7.30;99.90;;;;;;5076548;28;20197;-69
2023/10/07 05:01:04;;;;;;;22.67;12.90;;;7.30;99.90;;;;;;5080535;28;20657;-70
2023/10/07 05:03:31;;;;;;;20.27;12.70;;;7.30;99.90;;;;;;5078522;28;20197;-70
2023/10/07 05:06:00;;;;;;;23.07;12.57;;;7.30;99.90;;;;;;5074427;28;20229;-68
2023/10/07 05:08:27;;;;;;;22.27;13.07;;;7.20;99.90;;;;;;5074554;28;20197;-68
2023/10/07 05:11:04;;;;;;;24.10;13.37;;;7.30;99.90;;;;;;5074178;28;20201;-68
2023/10/07 05:13:32;;;;;;;24.77;13.33;;;7.50;99.90;;;;;;5074147;28;20563;-68
2023/10/07 05:15:59;;;;;;;22.63;13.10;;;7.40;99.90;;;;;;5073988;28;20648;-69
2023/10/07 05:18:25;;;;;;;24.10;13.57;;;7.40;99.90;;;;;;5073866;28;20656;-68
2023/10/07 05:20:51;;;;;;;26.37;14.17;;;7.40;99.90;;;;;;5074132;28;20257;-71
2023/10/07 05:23:22;;;;;;;26.27;14.30;;;7.40;99.90;;;;;;5073845;28;20648;-69
2023/10/07 05:25:50;;;;;;;25.23;14.63;;;7.40;99.90;;;;;;5073886;28;20318;-69
2023/10/07 05:28:20;;;;;;;22.97;13.17;;;7.50;99.90;;;;;;5073702;28;20208;-69
2023/10/07 05:30:51;;;;;;;23.67;13.20;;;7.50;99.90;;;;;;5073959;28;20240;-70
2023/10/07 05:33:20;;;;;;;24.70;14.30;;;7.50;99.90;;;;;;5074076;28;20197;-69
2023/10/07 05:35:49;;;;;;;28.63;14.10;;;7.50;99.90;;;;;;5073564;28;20209;-69
2023/10/07 05:38:17;;;;;;;24.33;14.53;;;7.50;99.90;;;;;;5073604;28;20198;-68
2023/10/07 05:40:46;;;;;;;25.27;13.43;;;7.40;99.90;;;;;;5073310;28;20233;-68
2023/10/07 05:43:13;;;;;;;22.53;13.47;;;7.50;99.90;;;;;;5073985;28;20201;-68
2023/10/07 05:45:40;;;;;;;26.53;13.13;;;7.50;99.90;;;;;;5073419;28;20292;-68
2023/10/07 05:48:07;;;;;;;22.67;13.97;;;7.70;99.90;;;;;;5073522;28;20204;-69
2023/10/07 05:50:35;;;;;;;22.10;12.83;;;7.80;99.90;;;;;;5073422;28;20197;-69
2023/10/07 05:53:04;;;;;;;23.83;13.47;;;7.70;99.90;;;;;;5073321;28;20201;-69
2023/10/07 05:55:33;;;;;;;21.30;13.83;;;7.80;99.90;;;;;;5073351;28;20215;-68
2023/10/07 05:58:02;;;;;;;21.13;13.27;;;7.80;99.90;;;;;;5073488;28;20206;-69
2023/10/07 06:00:31;;;;;;;24.13;13.47;;;7.80;99.90;;;;;;5073333;28;20204;-68
2023/10/07 06:02:59;;;;;;;23.80;13.33;;;7.80;99.90;;;;;;5072788;28;20292;-68
2023/10/07 06:05:27;;;;;;;23.43;13.40;;;7.90;99.90;;;;;;5072866;28;20202;-69
2023/10/07 06:07:55;;;;;;;19.33;13.17;;;7.90;99.90;;;;;;5073103;28;20205;-69
2023/10/07 06:10:24;;;;;;;24.17;12.53;;;7.80;99.90;;;;;;5073263;28;20204;-70
2023/10/07 06:12:53;;;;;;;23.63;12.33;;;7.90;99.90;;;;;;5073172;28;20296;-68
2023/10/07 06:15:23;;;;;;;23.13;13.00;;;8.00;99.90;;;;;;5080568;28;20296;-68
2023/10/07 06:17:50;;;;;;;20.90;12.33;;;8.10;99.90;;;;;;5073072;28;20561;-68
2023/10/07 06:20:26;;;;;;;21.07;12.17;;;8.20;99.90;;;;;;5073126;28;20204;-68
2023/10/07 06:22:56;;;;;;;23.53;12.27;;;8.30;99.90;;;;;;5073131;28;20200;-68
2023/10/07 06:25:30;;;;;;;16.90;11.87;;;8.40;99.90;;;;;;5072687;28;20640;-68
2023/10/07 06:27:58;;;;;;;20.40;11.00;;;8.60;99.90;;;;;;5072976;28;20200;-69
2023/10/07 06:30:26;;;;;;;19.70;12.13;;;8.80;99.90;;;;;;5072818;28;20204;-68
2023/10/07 06:32:56;;;;;;;23.37;12.27;;;9.00;99.90;;;;;;5073060;28;20197;-68
2023/10/07 06:35:23;;;;;;;18.93;11.73;;;9.10;99.90;;;;;;5072771;28;20292;-69
2023/10/07 06:37:51;;;;;;;18.63;11.83;;;9.30;99.90;;;;;;5072758;28;20192;-69
2023/10/07 06:40:25;;;;;;;19.27;11.77;;;9.40;99.90;;;;;;5072753;28;20209;-69
2023/10/07 06:42:55;;;;;;;19.00;12.50;;;9.60;99.90;;;;;;5052767;28;20239;-70
2023/10/07 06:45:22;;;;;;;25.33;13.70;;;9.80;99.90;;;;;;5052540;28;20202;-68
2023/10/07 06:47:51;;;;;;;21.10;13.17;;;9.90;99.90;;;;;;5052888;28;20237;-69
2023/10/07 06:50:19;;;;;;;19.17;12.17;;;10.00;99.90;;;;;;5053023;28;20193;-70
2023/10/07 06:52:49;;;;;;;20.27;11.97;;;10.10;99.90;;;;;;5052761;28;20201;-68
2023/10/07 06:55:16;;;;;;;16.73;11.40;;;10.00;99.90;;;;;;5052721;28;20198;-69
2023/10/07 06:57:45;;;;;;;18.43;10.63;;;10.00;99.90;;;;;;5052570;28;20683;-70
2023/10/07 07:00:23;;;;;;;17.83;10.07;;;10.10;99.90;;;;;;5052457;28;20248;-70
2023/10/07 07:02:57;;;;;;;17.00;10.50;;;10.10;99.90;;;;;;5052449;28;20197;-70
2023/10/07 07:05:25;;;;;;;17.10;9.90;;;10.10;99.90;;;;;;5052483;28;20288;-70
2023/10/07 07:07:54;;;;;;;17.40;10.30;;;10.20;99.90;;;;;;5052224;28;20750;-70
2023/10/07 07:10:27;;;;;;;18.60;10.57;;;10.30;99.90;;;;;;5052302;28;20262;-69
2023/10/07 07:12:58;;;;;;;19.33;10.53;;;10.60;99.90;;;;;;5052799;28;20225;-69
2023/10/07 07:15:27;;;;;;;18.07;10.63;;;10.80;99.90;;;;;;5054658;28;20204;-70
2023/10/07 07:18:08;;;;;;;15.93;9.60;;;11.10;99.90;;;;;;5056552;28;20217;-69
2023/10/07 07:20:48;;;;;;;14.93;9.33;;;11.40;99.90;;;;;;5056370;28;20205;-69
2023/10/07 07:23:16;;;;;;;14.50;9.30;;;11.90;99.90;;;;;;5056495;28;20212;-69
2023/10/07 07:25:50;;;;;;;12.30;8.53;;;12.40;99.90;;;;;;5056135;28;20248;-70
2023/10/07 07:28:17;;;;;;;10.67;7.40;;;12.70;99.90;;;;;;5056251;28;20205;-69
2023/10/07 07:30:45;;;;;;;14.93;8.40;;;13.10;99.90;;;;;;5055968;28;20779;-69
2023/10/07 07:33:15;;;;;;;13.20;7.73;;;13.20;99.90;;;;;;5056010;28;20284;-69
2023/10/07 07:35:44;;;;;;;13.23;7.33;;;13.30;99.90;;;;;;5055887;28;20198;-69
2023/10/07 07:38:29;;;;;;;11.47;7.57;;;13.30;99.90;;;;;;5056032;28;20410;-69
2023/10/07 07:41:05;;;;;;;13.33;7.63;;;13.30;99.90;;;;;;5060977;28;20233;-69
2023/10/07 07:43:33;;;;;;;11.93;7.60;;;13.30;99.90;;;;;;5075989;28;20200;-68
2023/10/07 07:46:20;;;;;;;15.50;7.83;;;13.50;99.90;;;;;;5075485;28;20224;-68
2023/10/07 07:48:50;;;;;;;13.33;7.30;;;13.50;99.90;;;;;;5075882;28;20197;-68
2023/10/07 07:51:17;;;;;;;11.03;7.27;;;13.70;99.90;;;;;;5075783;28;20197;-69
2023/10/07 07:53:44;;;;;;;11.87;6.93;;;13.60;99.90;;;;;;5075685;28;20288;-69
2023/10/07 07:56:12;;;;;;;13.10;8.47;;;13.90;99.90;;;;;;5075582;28;20197;-69
2023/10/07 07:58:39;;;;;;;18.70;13.20;;;13.90;99.90;;;;;;5075740;28;20204;-68
2023/10/07 08:01:06;;;;;;;11.57;7.50;;;14.00;99.90;;;;;;5075624;28;20205;-69
2023/10/07 08:03:35;;;;;;;12.27;7.10;;;14.10;99.90;;;;;;5075641;28;20193;-69
2023/10/07 08:06:06;;;;;;;14.30;8.20;;;14.20;99.90;;;;;;5075361;28;20201;-69
2023/10/07 08:08:36;;;;;;;13.93;10.77;;;14.10;99.90;;;;;;5075522;28;20277;-68
2023/10/07 08:11:04;;;;;;;13.07;8.30;;;14.40;99.90;;;;;;5075345;28;20197;-69
2023/10/07 08:13:31;;;;;;;9.87;7.07;;;14.50;99.90;;;;;;5075678;28;20235;-69
2023/10/07 08:16:05;;;;;;;14.20;6.80;;;14.40;99.90;;;;;;5075469;28;20197;-69
2023/10/07 08:18:32;;;;;;;13.83;8.83;;;14.50;99.90;;;;;;5075630;28;20288;-70
2023/10/07 08:21:06;;;;;;;12.63;6.47;;;14.50;99.90;;;;;;5075155;28;20236;-68
2023/10/07 08:23:40;;;;;;;14.47;6.90;;;14.50;99.90;;;;;;5075100;28;20200;-68
2023/10/07 08:26:10;;;;;;;12.63;6.83;;;14.70;99.90;;;;;;5074710;28;20216;-68
2023/10/07 08:28:42;;;;;;;8.57;6.60;;;14.90;99.90;;;;;;5075297;28;20205;-69
2023/10/07 08:31:18;;;;;;;10.43;6.73;;;14.90;99.90;;;;;;5074960;28;20200;-69
2023/10/07 08:33:53;;;;;;;17.97;6.90;;;15.00;99.90;;;;;;5074877;28;20201;-69
2023/10/07 08:36:29;;;;;;;12.23;6.60;;;15.10;99.90;;;;;;5075136;28;20237;-69
2023/10/07 08:38:58;;;;;;;10.50;6.33;;;15.20;99.90;;;;;;5075119;28;20193;-69
2023/10/07 08:41:28;;;;;;;9.60;6.50;;;15.10;99.90;;;;;;5074727;28;20231;-69
2023/10/07 08:44:06;;;;;;;10.80;6.53;;;15.00;99.90;;;;;;5074712;28;20247;-69
2023/10/07 08:46:39;;;;;;;10.67;6.27;;;15.00;99.90;;;;;;5074625;28;20220;-69
2023/10/07 08:49:13;;;;;;;11.20;6.60;;;14.90;99.90;;;;;;5074870;28;20197;-69
2023/10/07 08:51:41;;;;;;;11.33;6.73;;;15.10;99.90;;;;;;5080002;28;20193;-69
2023/10/07 08:54:17;;;;;;;11.50;5.77;;;15.10;99.90;;;;;;5079438;28;20256;-69
2023/10/07 08:56:54;;;;;;;9.63;6.20;;;15.00;99.90;;;;;;5074461;28;20196;-69
2023/10/07 08:59:22;;;;;;;9.97;6.27;;;15.10;99.90;;;;;;5074520;28;20205;-69
2023/10/07 09:01:57;;;;;;;11.50;6.33;;;14.90;99.90;;;;;;5074468;28;20220;-69
2023/10/07 09:04:24;;;;;;;10.40;6.70;;;15.10;99.90;;;;;;5074222;28;20570;-69
2023/10/07 09:06:51;;;;;;;12.43;7.03;;;15.20;99.90;;;;;;5074158;28;20220;-69
2023/10/07 09:09:35;;;;;;;11.30;6.47;;;15.40;99.90;;;;;;5074031;28;20250;-69
2023/10/07 09:12:08;;;;;;;13.60;6.70;;;15.40;99.90;;;;;;5074315;28;20197;-69
2023/10/07 09:14:36;;;;;;;9.17;6.43;;;15.30;99.90;;;;;;5074228;28;20208;-68
2023/10/07 09:17:04;;;;;;;9.20;6.50;;;15.40;99.90;;;;;;5074063;28;20228;-68
2023/10/07 09:19:31;;;;;;;12.77;6.80;;;15.50;99.90;;;;;;5073816;28;20236;-68
2023/10/07 09:21:57;;;;;;;11.02;5.95;;;15.70;99.90;;;;;;5073851;28;20200;-68
2023/10/07 09:24:25;;;;;;;10.25;6.50;;;15.30;99.90;;;;;;5073968;28;20193;-68
2023/10/07 09:26:57;;;;;;;10.50;5.88;;;15.50;99.90;;;;;;5073905;28;20256;-68
2023/10/07 09:29:25;;;;;;;7.70;5.88;;;15.50;99.90;;;;;;5073635;28;20660;-68
2023/10/07 09:31:56;;;;;;;12.63;6.80;;;15.50;99.90;;;;;;5073769;28;20284;-68
2023/10/07 09:34:30;;;;;;;11.77;6.45;;;15.60;99.90;;;;;;5073673;28;20275;-68
2023/10/07 09:36:57;;;;;;;12.82;6.60;;;15.80;99.90;;;;;;5073140;28;20200;-68
2023/10/07 09:39:34;;;;;;;11.35;6.30;;;15.50;99.90;;;;;;5073563;28;20193;-69
2023/10/07 09:42:25;;;;;;;12.40;6.43;;;15.50;99.90;;;;;;5073514;28;20275;-70
2023/10/07 09:44:55;;;;;;;10.82;6.47;;;15.50;99.90;;;;;;5081342;28;20235;-69
2023/10/07 09:47:22;;;;;;;9.40;6.07;;;15.60;99.90;;;;;;5073529;28;20231;-69
2023/10/07 09:49:57;;;;;;;7.70;5.15;;;15.80;99.90;;;;;;5073298;28;20652;-69
2023/10/07 09:52:29;;;;;;;9.15;6.53;;;15.90;99.90;;;;;;5073375;28;20196;-69
2023/10/07 09:55:22;;;;;;;11.70;6.40;;;15.70;99.90;;;;;;5073231;28;20196;-69
2023/10/07 09:58:06;;;;;;;10.30;6.57;;;15.60;99.90;;;;;;5073256;28;20243;-69
2023/10/07 10:00:44;;;;;;;11.38;5.90;;;15.90;99.90;;;;;;5073419;28;20720;-69
2023/10/07 10:03:45;;;;;;;11.00;6.10;;;15.90;99.90;;;;;;5073231;28;20251;-69
2023/10/07 10:06:26;;;;;;;9.60;5.90;;;15.90;99.90;;;;;;5078656;28;20199;-69
2023/10/07 10:08:59;;;;;;;12.45;6.40;;;16.10;99.90;;;;;;5093428;28;20671;-69
2023/10/07 10:11:44;;;;;;;15.13;6.57;;;16.20;99.90;;;;;;5093457;28;20674;-69
2023/10/07 10:14:19;;;;;;;12.38;6.28;;;16.10;99.90;;;;;;5093467;28;20279;-69
2023/10/07 10:16:51;;;;;;;9.48;5.90;;;16.10;99.90;;;;;;5093344;28;20218;-69
2023/10/07 10:19:28;;;;;;;7.28;5.63;;;15.90;99.90;;;;;;5093376;28;20324;-69
2023/10/07 10:21:55;;;;;;;8.98;5.75;;;16.20;99.90;;;;;;5093092;28;20551;-69
2023/10/07 10:24:29;;;;;;;9.23;5.47;;;15.90;99.90;;;;;;5093125;28;20517;-68
2023/10/07 10:27:04;;;;;;;10.00;6.55;;;15.40;99.90;;;;;;5093087;28;20251;-68
2023/10/07 10:29:36;;;;;;;12.30;6.63;;;15.30;99.90;;;;;;5092957;28;20634;-69
2023/10/07 10:32:07;;;;;;;13.30;7.25;;;15.10;99.90;;;;;;5093212;28;20204;-68
2023/10/07 10:34:35;;;;;;;11.23;6.70;;;15.10;99.90;;;;;;5092999;28;20200;-69
2023/10/07 10:37:05;;;;;;;11.37;6.13;;;15.10;99.90;;;;;;5093314;28;20287;-69
2023/10/07 10:39:32;;;;;;;13.40;6.13;;;15.20;99.90;;;;;;5093091;28;20200;-69
2023/10/07 10:42:05;;;;;;;12.50;6.50;;;15.20;99.90;;;;;;5092835;28;20228;-69
2023/10/07 10:44:38;;;;;;;10.73;6.57;;;15.40;99.90;;;;;;5092838;28;20240;-69
2023/10/07 10:47:05;;;;;;;10.67;7.10;;;15.40;99.90;;;;;;5092883;28;20224;-69
2023/10/07 10:49:32;;;;;;;8.90;6.27;;;15.60;99.90;;;;;;5097277;28;20228;-68
2023/10/07 10:52:02;;;;;;;14.10;6.70;;;15.60;99.90;;;;;;5099823;28;20294;-69
2023/10/07 10:54:29;;;;;;;12.30;6.60;;;15.70;99.90;;;;;;5099604;28;20200;-68
2023/10/07 10:56:58;;;;;;;10.70;6.57;;;15.70;99.90;;;;;;5099527;28;20536;-69
2023/10/07 10:59:40;;;;;;;9.17;5.97;;;15.60;99.90;;;;;;5099379;28;20199;-69
2023/10/07 11:02:07;;;;;;;12.60;7.33;;;15.30;99.90;;;;;;5100005;28;20271;-69
2023/10/07 11:04:34;;;;;;;10.30;6.43;;;15.50;99.90;;;;;;5099458;28;20679;-69
2023/10/07 11:07:01;;;;;;;9.80;6.40;;;15.50;99.90;;;;;;5099349;28;20250;-68
2023/10/07 11:09:35;;;;;;;8.98;7.15;;;15.70;99.90;;;;;;5099485;28;20204;-68
2023/10/07 11:12:09;;;;;;;11.45;6.03;;;15.90;99.90;;;;;;5099288;28;20257;-68
2023/10/07 11:14:38;;;;;;;14.40;8.15;;;16.10;99.90;;;;;;5099796;28;20232;-69
2023/10/07 11:17:05;;;;;;;12.10;6.18;;;16.40;99.90;;;;;;5099444;28;20279;-69
2023/10/07 11:19:37;;;;;;;10.45;6.10;;;16.50;99.90;;;;;;5099130;28;20651;-69
2023/10/07 11:22:07;;;;;;;11.30;7.15;;;16.50;99.90;;;;;;5099314;28;20200;-69
2023/10/07 11:24:35;;;;;;;13.82;6.25;;;16.30;99.90;;;;;;5099173;28;20198;-68
2023/10/07 11:27:02;;;;;;;9.98;5.75;;;16.40;99.90;;;;;;5099308;28;20207;-69
2023/10/07 11:29:30;;;;;;;10.93;5.80;;;16.40;99.90;;;;;;5099534;28;20239;-68
2023/10/07 11:32:03;;;;;;;14.95;7.57;;;16.70;99.90;;;;;;5099184;28;20277;-69
2023/10/07 11:34:36;;;;;;;11.45;5.93;;;16.80;99.90;;;;;;5099210;28;20192;-69
2023/10/07 11:37:09;;;;;;;13.93;9.55;;;17.00;99.90;;;;;;5099057;28;20204;-69
2023/10/07 11:39:42;;;;;;;10.27;5.45;;;16.80;99.90;;;;;;5099095;28;20291;-69
2023/10/07 11:42:14;;;;;;;11.20;5.95;;;16.80;99.90;;;;;;5099187;28;20231;-69
2023/10/07 11:44:42;;;;;;;12.30;5.32;;;16.70;99.90;;;;;;5099201;28;20196;-69
2023/10/07 11:47:11;;;;;;;8.10;5.70;;;16.70;99.90;;;;;;5099058;28;20206;-69
2023/10/07 11:49:38;;;;;;;7.97;5.53;;;16.60;99.90;;;;;;5104294;28;20743;-70
2023/10/07 11:52:05;;;;;;;8.82;5.15;;;16.70;99.90;;;;;;5101620;28;20218;-69
2023/10/07 11:54:35;;;;;;;15.93;11.77;;;16.70;99.90;;;;;;5100106;28;20208;-69
2023/10/07 11:57:04;;;;;;;8.77;5.78;;;16.90;99.90;;;;;;5099256;28;20223;-69
2023/10/07 11:59:31;;;;;;;8.63;5.28;;;17.20;99.90;;;;;;5099097;28;20204;-69
2023/10/07 12:01:58;;;;;;;9.68;5.63;;;17.40;99.90;;;;;;5095008;28;20321;-69
2023/10/07 12:04:26;;;;;;;8.93;5.38;;;17.50;99.90;;;;;;5096048;28;20204;-69
2023/10/07 12:06:53;;;;;;;10.48;5.72;;;17.50;99.90;;;;;;5095501;28;20200;-69
2023/10/07 12:09:21;;;;;;;11.18;6.05;;;17.80;99.90;;;;;;5095760;28;20235;-70
2023/10/07 12:11:49;;;;;;;7.68;5.20;;;17.70;99.90;;;;;;5095944;28;20203;-69
2023/10/07 12:14:18;;;;;;;13.85;5.50;;;18.20;99.90;;;;;;5095612;28;20287;-70
2023/10/07 12:16:45;;;;;;;8.65;5.32;;;18.30;99.90;;;;;;5100014;28;20231;-70
2023/10/07 12:19:17;;;;;;;12.45;5.40;;;18.00;99.90;;;;;;5103784;28;20287;-70
2023/10/07 12:21:45;;;;;;;8.05;5.07;;;18.20;99.90;;;;;;5101888;28;20200;-70
2023/10/07 12:24:12;;;;;;;7.72;5.10;;;18.40;99.90;;;;;;5096502;28;20200;-69
2023/10/07 12:26:39;;;;;;;8.57;5.05;;;19.60;99.90;;;;;;5095320;28;20194;-70
2023/10/07 12:29:06;;;;;;;6.25;4.50;;;20.70;99.90;;;;;;5095401;28;20766;-70
2023/10/07 12:31:33;;;;;;;8.75;5.38;;;20.90;99.90;;;;;;5095198;28;20290;-70
2023/10/07 12:34:00;;;;;;;11.88;5.47;;;19.70;99.90;;;;;;5095363;28;20197;-69
2023/10/07 12:36:29;;;;;;;9.75;5.63;;;18.80;99.90;;;;;;5095241;28;20197;-69
2023/10/07 12:38:57;;;;;;;8.68;5.05;;;19.40;99.90;;;;;;5095169;28;20199;-69
2023/10/07 12:41:24;;;;;;;11.25;5.38;;;19.00;99.90;;;;;;5094932;28;20293;-69
2023/10/07 12:43:51;;;;;;;9.60;5.53;;;18.30;99.90;;;;;;5094763;28;20540;-68
2023/10/07 12:46:18;;;;;;;9.63;5.15;;;18.00;99.90;;;;;;5095166;28;20228;-69
2023/10/07 12:48:46;;;;;;;9.48;5.03;;;17.80;99.90;;;;;;5095033;28;20266;-69
2023/10/07 12:51:13;;;;;;;9.10;4.68;;;18.00;99.90;;;;;;5094862;28;20716;-69
2023/10/07 12:53:40;;;;;;;9.15;5.20;;;18.00;99.90;;;;;;5094844;28;20192;-69
2023/10/07 12:56:17;;;;;;;10.18;5.65;;;17.80;99.90;;;;;;5094689;28;20204;-69
2023/10/07 12:58:46;;;;;;;8.88;4.70;;;17.80;99.90;;;;;;5094956;28;20605;-69
2023/10/07 13:01:12;;;;;;;8.55;5.00;;;17.60;99.90;;;;;;5094813;28;20199;-68